Time;durP1;ratioP1;P1;durP2;ratioP2;P2;SDS_P1;SDS_P2;PMS_P1;PMS_P2;Temp;Humidity;BMP_temperature;BMP_pressure;BME280_temperature;BME280_humidity;BME280_pressure;Samples;Min_cycle;Max_cycle;Signal;HPM_P1;HPM_P2
2022/11/12 00:02:15;;;;;;;0.70;0.70;;;;;;;;;;5112948;28;20193;-76
2022/11/12 00:04:41;;;;;;;0.80;0.80;;;;;;;;;;5112973;28;20173;-76
2022/11/12 00:07:07;;;;;;;0.70;0.70;;;;;;;;;;5112940;28;20169;-76
2022/11/12 00:09:33;;;;;;;0.80;0.80;;;;;;;;;;5112500;28;20519;-76
2022/11/12 00:11:59;;;;;;;0.80;0.80;;;;;;;;;;5112483;28;20212;-76
2022/11/12 00:14:25;;;;;;;0.70;0.70;;;;;;;;;;5112814;28;20193;-76
2022/11/12 00:16:50;;;;;;;0.90;0.90;;;;;;;;;;5112887;28;20165;-76
2022/11/12 00:19:16;;;;;;;0.90;0.90;;;;;;;;;;5112781;28;20185;-76
2022/11/12 00:21:42;;;;;;;0.80;0.80;;;;;;;;;;5112130;28;20189;-76
2022/11/12 00:24:08;;;;;;;0.90;0.90;;;;;;;;;;5112784;28;20250;-76
2022/11/12 00:26:34;;;;;;;0.80;0.80;;;;;;;;;;5112592;28;20177;-76
2022/11/12 00:29:00;;;;;;;0.73;0.73;;;;;;;;;;5112842;28;20177;-76
2022/11/12 00:31:26;;;;;;;0.70;0.70;;;;;;;;;;5111623;28;20226;-76
2022/11/12 00:33:53;;;;;;;0.70;0.70;;;;;;;;;;5112085;28;20177;-76
2022/11/12 00:36:19;;;;;;;0.83;0.83;;;;;;;;;;5112700;28;20180;-76
2022/11/12 00:38:45;;;;;;;0.90;0.90;;;;;;;;;;5112382;28;20169;-76
2022/11/12 00:41:11;;;;;;;0.77;0.77;;;;;;;;;;5112010;28;20270;-76
2022/11/12 00:43:37;;;;;;;0.80;0.80;;;;;;;;;;5112587;28;20180;-76
2022/11/12 00:46:03;;;;;;;0.80;0.80;;;;;;;;;;5112645;28;20267;-76
2022/11/12 00:48:29;;;;;;;0.90;0.90;;;;;;;;;;5112580;28;20168;-76
2022/11/12 00:51:00;;;;;;;0.80;0.80;;;;;;;;;;5111625;28;20572;-76
2022/11/12 00:53:25;;;;;;;1.00;1.00;;;;;;;;;;5112292;28;20187;-76
2022/11/12 00:55:51;;;;;;;1.00;1.00;;;;;;;;;;5112186;28;20181;-76
2022/11/12 00:58:17;;;;;;;1.10;1.10;;;;;;;;;;5112569;28;20654;-76
2022/11/12 01:00:43;;;;;;;0.90;0.90;;;;;;;;;;5112349;28;20662;-76
2022/11/12 01:03:09;;;;;;;0.90;0.90;;;;;;;;;;5112851;28;20654;-76
2022/11/12 01:05:35;;;;;;;1.07;1.07;;;;;;;;;;5112339;28;20539;-76
2022/11/12 01:08:01;;;;;;;1.00;1.00;;;;;;;;;;5112043;28;20268;-76
2022/11/12 01:10:27;;;;;;;0.90;0.90;;;;;;;;;;5111456;28;20181;-76
2022/11/12 01:12:54;;;;;;;0.80;0.80;;;;;;;;;;5112072;28;20181;-76
2022/11/12 01:15:20;;;;;;;0.90;0.90;;;;;;;;;;5111932;28;20211;-76
2022/11/12 01:17:46;;;;;;;0.90;0.90;;;;;;;;;;5112127;28;20554;-76
2022/11/12 01:20:12;;;;;;;1.00;1.00;;;;;;;;;;5111687;28;20518;-76
2022/11/12 01:22:38;;;;;;;1.00;1.00;;;;;;;;;;5111913;28;20271;-76
2022/11/12 01:25:04;;;;;;;1.17;1.10;;;;;;;;;;5111748;28;20541;-76
2022/11/12 01:27:30;;;;;;;0.80;0.80;;;;;;;;;;5112141;28;20195;-76
2022/11/12 01:29:56;;;;;;;0.80;0.80;;;;;;;;;;5111462;28;20610;-76
2022/11/12 01:32:22;;;;;;;0.90;0.90;;;;;;;;;;5111859;28;20686;-76
2022/11/12 01:34:50;;;;;;;0.90;0.90;;;;;;;;;;5111780;28;20177;-76
2022/11/12 01:37:16;;;;;;;0.90;0.90;;;;;;;;;;5111849;28;20249;-75
2022/11/12 01:39:41;;;;;;;0.80;0.80;;;;;;;;;;5111687;28;20571;-77
2022/11/12 01:42:07;;;;;;;0.80;0.80;;;;;;;;;;5111853;28;20587;-76
2022/11/12 01:44:34;;;;;;;0.90;0.90;;;;;;;;;;5114158;28;20642;-75
2022/11/12 01:47:03;;;;;;;0.90;0.90;;;;;;;;;;5115676;28;20200;-76
2022/11/12 01:49:37;;;;;;;0.83;0.83;;;;;;;;;;5115268;28;20196;-76
2022/11/12 01:52:12;;;;;;;0.90;0.90;;;;;;;;;;5115386;28;20220;-76
2022/11/12 01:54:38;;;;;;;0.90;0.90;;;;;;;;;;5115584;28;20177;-75
2022/11/12 01:57:05;;;;;;;0.80;0.80;;;;;;;;;;5115313;28;20173;-76
2022/11/12 01:59:34;;;;;;;0.80;0.80;;;;;;;;;;5114954;28;20181;-76
2022/11/12 02:02:00;;;;;;;0.90;0.90;;;;;;;;;;5115107;28;20684;-76
2022/11/12 02:04:27;;;;;;;1.00;1.00;;;;;;;;;;5115744;28;20177;-76
2022/11/12 02:06:54;;;;;;;0.80;0.80;;;;;;;;;;5115435;28;20187;-76
2022/11/12 02:09:20;;;;;;;1.00;1.00;;;;;;;;;;5115373;28;20173;-76
2022/11/12 02:11:46;;;;;;;0.93;0.93;;;;;;;;;;5114784;28;20220;-76
2022/11/12 02:14:13;;;;;;;0.80;0.80;;;;;;;;;;5115125;28;20192;-76
2022/11/12 02:16:40;;;;;;;1.00;1.00;;;;;;;;;;5096771;28;20188;-76
2022/11/12 02:19:08;;;;;;;0.87;0.87;;;;;;;;;;5115032;28;20177;-76
2022/11/12 02:21:34;;;;;;;0.90;0.90;;;;;;;;;;5114766;28;20284;-76
2022/11/12 02:24:26;;;;;;;0.90;0.90;;;;;;;;;;5115139;28;20173;-76
2022/11/12 02:26:54;;;;;;;0.80;0.80;;;;;;;;;;5096523;28;20685;-76
2022/11/12 02:29:20;;;;;;;0.90;0.90;;;;;;;;;;5114880;28;20264;-76
2022/11/12 02:31:46;;;;;;;1.10;1.10;;;;;;;;;;5114157;28;20227;-75
2022/11/12 02:34:12;;;;;;;1.00;1.00;;;;;;;;;;5114861;28;20173;-76
2022/11/12 02:36:38;;;;;;;1.10;1.10;;;;;;;;;;5114727;28;20621;-75
2022/11/12 02:39:04;;;;;;;1.00;1.00;;;;;;;;;;5114698;28;20180;-76
2022/11/12 02:41:30;;;;;;;0.80;0.80;;;;;;;;;;5114103;28;20193;-76
2022/11/12 02:43:56;;;;;;;0.90;0.90;;;;;;;;;;5114539;28;20704;-76
2022/11/12 02:46:22;;;;;;;1.00;1.00;;;;;;;;;;5114354;28;20209;-76
2022/11/12 02:48:48;;;;;;;0.80;0.80;;;;;;;;;;5114547;28;20713;-75
2022/11/12 02:51:14;;;;;;;0.90;0.90;;;;;;;;;;5113683;28;20201;-76
2022/11/12 02:53:40;;;;;;;0.90;0.90;;;;;;;;;;5114473;28;20181;-76
2022/11/12 02:56:06;;;;;;;0.90;0.90;;;;;;;;;;5113790;28;20637;-76
2022/11/12 02:58:32;;;;;;;0.87;0.87;;;;;;;;;;5114125;28;20184;-76
2022/11/12 03:00:58;;;;;;;1.00;1.00;;;;;;;;;;5113817;28;20284;-76
2022/11/12 03:03:24;;;;;;;0.97;0.97;;;;;;;;;;5114254;28;20184;-76
2022/11/12 03:06:00;;;;;;;0.90;0.90;;;;;;;;;;5114560;28;20619;-76
2022/11/12 03:08:26;;;;;;;0.90;0.90;;;;;;;;;;5114327;28;20168;-76
2022/11/12 03:10:52;;;;;;;0.77;0.77;;;;;;;;;;5111784;28;20201;-75
2022/11/12 03:13:18;;;;;;;0.83;0.83;;;;;;;;;;5113716;28;20553;-76
2022/11/12 03:15:45;;;;;;;0.90;0.90;;;;;;;;;;5135270;22;20232;-77
2022/11/12 03:18:11;;;;;;;0.90;0.90;;;;;;;;;;5099796;28;20188;-78
2022/11/12 03:20:37;;;;;;;0.97;0.97;;;;;;;;;;5098686;28;20193;-78
2022/11/12 03:23:07;;;;;;;0.90;0.90;;;;;;;;;;5099620;28;20177;-77
2022/11/12 03:25:34;;;;;;;1.13;1.10;;;;;;;;;;5099113;28;20181;-78
2022/11/12 03:28:10;;;;;;;1.00;1.00;;;;;;;;;;5099272;28;20174;-77
2022/11/12 03:30:38;;;;;;;0.90;0.90;;;;;;;;;;5094036;28;20293;-76
2022/11/12 03:33:04;;;;;;;0.80;0.80;;;;;;;;;;5093070;28;20269;-76
2022/11/12 03:35:31;;;;;;;0.90;0.90;;;;;;;;;;5092929;28;20174;-76
2022/11/12 03:37:57;;;;;;;0.80;0.80;;;;;;;;;;5092701;28;20210;-76
2022/11/12 03:40:23;;;;;;;1.10;1.10;;;;;;;;;;5091984;28;20170;-76
2022/11/12 03:42:50;;;;;;;0.90;0.90;;;;;;;;;;5092603;28;20708;-76
2022/11/12 03:45:17;;;;;;;0.90;0.90;;;;;;;;;;5092905;28;20554;-77
2022/11/12 03:47:47;;;;;;;0.80;0.80;;;;;;;;;;5092672;28;20182;-76
2022/11/12 03:50:14;;;;;;;1.00;1.00;;;;;;;;;;5091836;28;20174;-76
2022/11/12 03:52:44;;;;;;;1.00;1.00;;;;;;;;;;5092361;28;20251;-76
2022/11/12 03:55:10;;;;;;;1.30;1.20;;;;;;;;;;5092187;28;20726;-76
2022/11/12 03:57:36;;;;;;;1.10;1.10;;;;;;;;;;5092315;28;20269;-77
2022/11/12 04:00:02;;;;;;;1.00;1.00;;;;;;;;;;5092088;28;20181;-76
2022/11/12 04:02:29;;;;;;;1.00;1.00;;;;;;;;;;5092894;28;20190;-76
2022/11/12 04:10:24;;;;;;;0.90;0.90;;;;;;;;;;5093160;28;20201;-76
2022/11/12 04:15:33;;;;;;;1.40;1.30;;;5.00;99.90;;;;;;5092948;28;20222;-76
2022/11/12 04:21:49;;;;;;;1.00;1.00;;;;;;;;;;5091874;28;20751;-76
2022/11/12 04:23:30;;;;;;;1.00;1.00;;;;;;;;;;5091852;28;20542;-77
2022/11/12 04:30:14;;;;;;;1.70;1.60;;;;;;;;;;5092156;28;20181;-75
2022/11/12 04:31:26;;;;;;;1.20;1.10;;;;;;;;;;5090906;28;20210;-76
2022/11/12 04:33:52;;;;;;;1.03;1.03;;;;;;;;;;5092263;28;20196;-76
2022/11/12 04:36:18;;;;;;;1.07;1.07;;;;;;;;;;5091674;28;20523;-76
2022/11/12 04:38:44;;;;;;;1.23;1.17;;;;;;;;;;5091981;28;20260;-76
2022/11/12 04:46:53;;;;;;;0.90;0.90;;;;;;;;;;5091822;28;20180;-76
2022/11/12 04:49:19;;;;;;;1.13;1.10;;;;;;;;;;5091934;28;20545;-76
2022/11/12 04:54:29;;;;;;;1.00;1.00;;;;;;;;;;5091952;28;20227;-76
2022/11/12 04:56:55;;;;;;;1.00;1.00;;;;;;;;;;5091729;28;20182;-76
2022/11/12 04:59:21;;;;;;;1.13;1.13;;;;;;;;;;5091328;28;20207;-77
2022/11/12 05:01:47;;;;;;;1.00;1.00;;;;;;;;;;5091336;28;20193;-76
2022/11/12 05:04:13;;;;;;;0.90;0.90;;;;;;;;;;5091603;28;20170;-76
2022/11/12 05:06:51;;;;;;;0.90;0.90;;;;;;;;;;5091784;28;20323;-76
2022/11/12 05:09:18;;;;;;;0.80;0.80;;;;;;;;;;5091814;28;20173;-76
2022/11/12 05:11:44;;;;;;;0.90;0.90;;;;;;;;;;5091189;28;20351;-76
2022/11/12 05:14:10;;;;;;;0.90;0.90;;;;;;;;;;5091375;28;20178;-76
2022/11/12 05:16:36;;;;;;;1.10;1.10;;;;;;;;;;5091840;28;20185;-76
2022/11/12 05:19:02;;;;;;;1.17;1.10;;;;;;;;;;5093215;28;20170;-76
2022/11/12 05:24:12;;;;;;;0.80;0.80;;;;;;;;;;5095487;28;20180;-76
2022/11/12 05:26:38;;;;;;;0.90;0.90;;;;;;;;;;5095287;28;20252;-76
2022/11/12 05:29:04;;;;;;;0.90;0.90;;;;;;;;;;5095279;28;20181;-76
2022/11/12 05:31:31;;;;;;;1.00;1.00;;;;;;;;;;5094363;28;20217;-76
2022/11/12 05:33:57;;;;;;;1.10;1.10;;;;;;;;;;5095630;28;20174;-77
2022/11/12 05:36:23;;;;;;;1.13;1.10;;;;;;;;;;5095544;28;20180;-76
2022/11/12 05:38:49;;;;;;;1.00;1.00;;;;;;;;;;5095438;28;20635;-77
2022/11/12 05:41:15;;;;;;;1.10;1.10;;;;;;;;;;5095046;28;20190;-78
2022/11/12 05:43:40;;;;;;;0.83;0.83;;;;;;;;;;5096697;28;20173;-77
2022/11/12 05:46:06;;;;;;;1.23;1.13;;;;;;;;;;5096680;28;20178;-77
2022/11/12 05:48:32;;;;;;;1.00;1.00;;;;;;;;;;5096054;28;20177;-77
2022/11/12 05:50:58;;;;;;;1.10;1.10;;;;;;;;;;5095216;28;20213;-77
2022/11/12 05:53:24;;;;;;;0.97;0.97;;;;;;;;;;5095967;28;20181;-77
2022/11/12 05:55:50;;;;;;;0.87;0.87;;;;;;;;;;5095778;28;20715;-77
2022/11/12 05:58:16;;;;;;;1.00;1.00;;;;;;;;;;5095699;28;20651;-77
2022/11/12 06:00:42;;;;;;;1.07;1.07;;;;;;;;;;5095639;28;20216;-76
2022/11/12 06:03:08;;;;;;;1.50;1.40;;;;;;;;;;5096063;28;20274;-77
2022/11/12 06:05:35;;;;;;;0.90;0.90;;;;;;;;;;5095476;28;20659;-76
2022/11/12 06:08:02;;;;;;;1.40;1.30;;;;;;;;;;5095251;28;20257;-77
2022/11/12 06:10:28;;;;;;;1.80;1.70;;;;;;;;;;5094637;28;20181;-77
2022/11/12 06:12:54;;;;;;;1.60;1.50;;;;;;;;;;5095498;28;20571;-77
2022/11/12 06:15:20;;;;;;;1.10;1.10;;;;;;;;;;5095087;28;20197;-78
2022/11/12 06:17:46;;;;;;;1.40;1.30;;;;;;;;;;5095023;28;20243;-77
2022/11/12 06:20:13;;;;;;;1.37;1.27;;;;;;;;;;5094230;28;20227;-76
2022/11/12 06:22:38;;;;;;;1.00;1.00;;;;;;;;;;5094523;28;20185;-77
2022/11/12 06:25:05;;;;;;;1.00;1.00;;;;;;;;;;5094162;28;20595;-76
2022/11/12 06:27:31;;;;;;;1.10;1.10;;;;;;;;;;5094695;28;20185;-77
2022/11/12 06:29:57;;;;;;;1.20;1.20;;;;;;;;;;5093421;28;20186;-76
2022/11/12 06:32:23;;;;;;;1.37;1.27;;;;;;;;;;5094328;28;20221;-77
2022/11/12 06:34:51;;;;;;;1.00;1.00;;;;;;;;;;5076569;28;20174;-76
2022/11/12 06:37:17;;;;;;;1.73;1.63;;;;;;;;;;5094767;28;20260;-77
2022/11/12 06:39:43;;;;;;;1.00;1.00;;;;;;;;;;5097345;28;20182;-77
2022/11/12 06:42:09;;;;;;;1.27;1.17;;;;;;;;;;5097590;28;20209;-77
2022/11/12 06:44:35;;;;;;;1.20;1.10;;;;;;;;;;5096389;28;20256;-77
2022/11/12 06:47:01;;;;;;;1.00;1.00;;;;;;;;;;5094477;28;20177;-77
2022/11/12 06:49:27;;;;;;;1.00;1.00;;;;;;;;;;5094141;28;20177;-77
2022/11/12 06:51:53;;;;;;;1.10;1.10;;;;;;;;;;5093973;28;20275;-77
2022/11/12 06:54:19;;;;;;;1.10;1.10;;;;;;;;;;5094635;28;20192;-77
2022/11/12 06:56:45;;;;;;;1.00;1.00;;;;;;;;;;5094495;28;20583;-76
2022/11/12 06:59:11;;;;;;;1.10;1.10;;;;;;;;;;5094181;28;20651;-77
2022/11/12 07:01:37;;;;;;;1.10;1.10;;;;;;;;;;5093773;28;20198;-77
2022/11/12 07:04:03;;;;;;;0.80;0.80;;;;;;;;;;5094105;28;20184;-76
2022/11/12 07:06:29;;;;;;;1.00;1.00;;;;;;;;;;5094136;28;20181;-77
2022/11/12 07:08:55;;;;;;;1.00;1.00;;;;;;;;;;5094248;28;20596;-77
2022/11/12 07:11:21;;;;;;;1.00;1.00;;;;;;;;;;5093032;28;20681;-76
2022/11/12 07:13:47;;;;;;;1.07;1.07;;;;;;;;;;5094038;28;20174;-76
2022/11/12 07:16:17;;;;;;;0.87;0.87;;;;;;;;;;5093480;28;20196;-77
2022/11/12 07:18:44;;;;;;;1.00;1.00;;;;;;;;;;5093689;28;20263;-77
2022/11/12 07:21:11;;;;;;;0.90;0.90;;;;;;;;;;5093164;28;20194;-76
2022/11/12 07:23:37;;;;;;;1.03;1.03;;;;;;;;;;5093829;28;20184;-77
2022/11/12 07:26:17;;;;;;;0.70;0.70;;;;;;;;;;5093583;28;20189;-76
2022/11/12 07:28:43;;;;;;;0.90;0.90;;;;;;;;;;5093308;28;20227;-77
2022/11/12 07:31:10;;;;;;;0.80;0.80;;;;;;;;;;5092779;28;20213;-77
2022/11/12 07:33:36;;;;;;;1.00;1.00;;;;;;;;;;5093237;28;20204;-77
2022/11/12 07:36:09;;;;;;;1.00;1.00;;;;;;;;;;5093712;28;20679;-77
2022/11/12 07:38:36;;;;;;;1.00;1.00;;;;;;;;;;5093399;28;20577;-77
2022/11/12 07:41:07;;;;;;;1.00;1.00;;;;;;;;;;5092302;28;20197;-76
2022/11/12 07:43:33;;;;;;;0.90;0.90;;;;;;;;;;5093344;28;20663;-77
2022/11/12 07:46:03;;;;;;;1.00;1.00;;;;;;;;;;5092859;28;20174;-77
2022/11/12 07:48:30;;;;;;;1.20;1.20;;;;;;;;;;5092865;28;20697;-76
2022/11/12 07:51:03;;;;;;;0.83;0.83;;;;;;;;;;5093011;28;20241;-76
2022/11/12 07:53:29;;;;;;;1.43;1.33;;;;;;;;;;5093134;28;20182;-77
2022/11/12 07:55:55;;;;;;;1.60;1.50;;;;;;;;;;5093797;28;20201;-76
2022/11/12 07:58:22;;;;;;;1.50;1.40;;;;;;;;;;5093812;28;20181;-75
2022/11/12 08:00:48;;;;;;;1.40;1.30;;;;;;;;;;5092377;28;20515;-77
2022/11/12 08:03:14;;;;;;;1.40;1.30;;;;;;;;;;5092759;28;20277;-77
2022/11/12 08:05:40;;;;;;;0.90;0.90;;;;;;;;;;5092803;28;20178;-76
2022/11/12 08:08:06;;;;;;;1.00;1.00;;;;;;;;;;5092575;28;20698;-76
2022/11/12 08:10:32;;;;;;;1.40;1.30;;;;;;;;;;5091986;28;20217;-77
2022/11/12 08:12:58;;;;;;;0.80;0.80;;;;;;;;;;5092300;28;20216;-76
2022/11/12 08:15:24;;;;;;;0.90;0.90;;;;;;;;;;5092380;28;20182;-76
2022/11/12 08:17:50;;;;;;;0.90;0.90;;;;;;;;;;5092695;28;20185;-76
2022/11/12 08:20:15;;;;;;;0.80;0.80;;;5.00;99.90;;;;;;5091987;28;20170;-76
2022/11/12 08:22:41;;;;;;;1.00;1.00;;;;;;;;;;5092301;28;20174;-77
2022/11/12 08:25:07;;;;;;;1.00;1.00;;;;;;;;;;5092367;28;20208;-77
2022/11/12 08:27:33;;;;;;;0.90;0.90;;;;;;;;;;5092130;28;20316;-76
2022/11/12 08:29:59;;;;;;;0.80;0.80;;;;;;;;;;5091720;28;20651;-77
2022/11/12 08:32:25;;;;;;;0.80;0.80;;;;;;;;;;5092488;28;20252;-77
2022/11/12 08:34:51;;;;;;;0.70;0.70;;;;;;;;;;5092025;28;20200;-76
2022/11/12 08:37:17;;;;;;;0.80;0.80;;;;;;;;;;5091930;28;20188;-76
2022/11/12 08:39:43;;;;;;;0.80;0.80;;;;;;;;;;5091258;28;20177;-76
2022/11/12 08:42:09;;;;;;;0.90;0.90;;;;;;;;;;5091480;28;20335;-76
2022/11/12 08:44:35;;;;;;;0.80;0.80;;;;;;;;;;5092147;28;20300;-76
2022/11/12 08:47:01;;;;;;;0.70;0.70;;;;;;;;;;5091997;28;20174;-77
2022/11/12 08:49:28;;;;;;;0.70;0.70;;;;;;;;;;5091208;28;20703;-76
2022/11/12 08:51:54;;;;;;;0.60;0.60;;;;;;;;;;5091162;28;20690;-76
2022/11/12 08:54:21;;;;;;;0.60;0.60;;;;;;;;;;5090947;28;20281;-76
2022/11/12 08:56:47;;;;;;;0.73;0.73;;;;;;;;;;5091824;28;20205;-77
2022/11/12 08:59:13;;;;;;;0.70;0.70;;;;;;;;;;5092648;28;20178;-77
2022/11/12 09:01:39;;;;;;;0.70;0.70;;;;;;;;;;5091201;28;20193;-77
2022/11/12 09:04:05;;;;;;;0.70;0.70;;;;;;;;;;5092146;28;20700;-77
2022/11/12 09:06:31;;;;;;;0.70;0.70;;;;;;;;;;5092120;28;20178;-76
2022/11/12 09:08:57;;;;;;;0.67;0.67;;;;;;;;;;5091729;28;20205;-77
2022/11/12 09:11:22;;;;;;;0.60;0.60;;;;;;;;;;5091295;28;20300;-76
2022/11/12 09:13:49;;;;;;;0.60;0.60;;;;;;;;;;5091775;28;20174;-76
2022/11/12 09:16:16;;;;;;;0.70;0.70;;;;;;;;;;5091937;28;20200;-77
2022/11/12 09:18:42;;;;;;;0.70;0.70;;;;;;;;;;5091473;28;20173;-76
2022/11/12 09:21:10;;;;;;;0.90;0.90;;;;;;;;;;5091236;28;20201;-77
2022/11/12 09:23:37;;;;;;;0.70;0.70;;;;;;;;;;5091679;28;20174;-77
2022/11/12 09:26:03;;;;;;;0.80;0.80;;;5.70;99.90;;;;;;5091724;28;20197;-77
2022/11/12 09:28:29;;;;;;;0.70;0.70;;;;;;;;;;5092137;28;20189;-77
2022/11/12 09:30:55;;;;;;;0.70;0.70;;;;;;;;;;5091477;28;20522;-77
2022/11/12 09:33:29;;;;;;;0.60;0.60;;;;;;;;;;5091805;28;20185;-76
2022/11/12 09:35:55;;;;;;;0.60;0.60;;;;;;;;;;5091751;28;20541;-76
2022/11/12 09:38:21;;;;;;;0.60;0.60;;;;;;;;;;5093846;28;20552;-78
2022/11/12 09:40:50;;;;;;;0.70;0.70;;;;;;;;;;5091418;28;20202;-76
2022/11/12 09:43:19;;;;;;;0.83;0.83;;;;;;;;;;5092248;28;20174;-77
2022/11/12 09:45:46;;;;;;;0.60;0.60;;;;;;;;;;5092627;28;20184;-76
2022/11/12 09:48:15;;;;;;;0.70;0.70;;;;;;;;;;5092465;28;20587;-77
2022/11/12 09:50:49;;;;;;;0.70;0.70;;;;;;;;;;5092083;28;20194;-77
2022/11/12 09:53:21;;;;;;;0.70;0.70;;;;;;;;;;5093335;28;20184;-76
2022/11/12 09:55:49;;;;;;;0.60;0.60;;;;;;;;;;5093730;28;20182;-78
2022/11/12 09:58:16;;;;;;;0.70;0.70;;;;;;;;;;5093211;28;20265;-77
2022/11/12 10:00:52;;;;;;;0.73;0.73;;;;;;;;;;5092148;28;20198;-77
2022/11/12 10:03:30;;;;;;;0.50;0.50;;;;;;;;;;5092642;28;20166;-77
2022/11/12 10:05:59;;;;;;;0.60;0.60;;;;;;;;;;5097059;28;20216;-77
2022/11/12 10:08:39;;;;;;;0.60;0.60;;;;;;;;;;5095113;28;20178;-77
2022/11/12 10:11:13;;;;;;;0.60;0.60;;;;;;;;;;5087662;28;20227;-76
2022/11/12 10:13:53;;;;;;;0.60;0.60;;;;;;;;;;5083746;28;20655;-77
2022/11/12 10:16:42;;;;;;;0.60;0.60;;;;;;;;;;5092965;28;20204;-77
2022/11/12 10:19:26;;;;;;;0.70;0.70;;;;;;;;;;5092677;28;20227;-76
2022/11/12 10:21:57;;;;;;;0.70;0.70;;;;;;;;;;5086221;28;20472;-77
2022/11/12 10:24:23;;;;;;;0.70;0.70;;;;;;;;;;5083545;28;20661;-77
2022/11/12 10:26:50;;;;;;;0.63;0.63;;;;;;;;;;5082626;28;20197;-77
2022/11/12 10:29:36;;;;;;;0.60;0.60;;;;;;;;;;5091776;28;20193;-78
2022/11/12 10:32:02;;;;;;;0.60;0.60;;;;;;;;;;5075473;28;20210;-78
2022/11/12 10:34:30;;;;;;;0.60;0.60;;;;;;;;;;5084188;28;20182;-78
2022/11/12 10:37:04;;;;;;;0.70;0.70;;;;;;;;;;5096092;28;20186;-79
2022/11/12 10:39:31;;;;;;;0.60;0.60;;;;;;;;;;5095820;28;20184;-78
2022/11/12 10:42:05;;;;;;;0.60;0.60;;;;;;;;;;5084387;28;20202;-77
2022/11/12 10:44:31;;;;;;;0.60;0.60;;;;;;;;;;5083657;28;20238;-76
2022/11/12 10:47:16;;;;;;;0.60;0.60;;;;;;;;;;5082453;28;20212;-79
2022/11/12 10:49:42;;;;;;;0.80;0.80;;;;;;;;;;5097610;28;20177;-77
2022/11/12 10:52:20;;;;;;;0.60;0.60;;;;;;;;;;5087651;28;20221;-78
2022/11/12 10:54:46;;;;;;;0.73;0.73;;;;;;;;;;5095168;28;20259;-77
2022/11/12 10:57:25;;;;;;;0.50;0.50;;;;;;;;;;5084819;28;20202;-78
2022/11/12 11:00:10;;;;;;;0.70;0.70;;;;;;;;;;5087687;28;20178;-78
2022/11/12 11:02:36;;;;;;;0.50;0.50;;;;;;;;;;5093140;28;20189;-77
2022/11/12 11:05:21;;;;;;;0.60;0.60;;;;;;;;;;5097296;28;20565;-77
2022/11/12 11:07:49;;;;;;;0.70;0.70;;;;;;;;;;5092166;28;20591;-78
2022/11/12 11:10:23;;;;;;;0.57;0.57;;;;;;;;;;5100943;28;20192;-77
2022/11/12 11:13:07;;;;;;;0.60;0.60;;;8.00;1.00;;;;;;5093445;28;20663;-77
2022/11/12 11:15:32;;;;;;;0.50;0.50;;;12.50;99.90;;;;;;5076940;28;20229;-79
2022/11/12 11:17:58;;;;;;;0.60;0.60;;;13.20;1.00;;;;;;5094573;28;20193;-78
2022/11/12 11:20:30;;;;;;;0.50;0.50;;;13.70;1.00;;;;;;5079902;28;20252;-77
2022/11/12 11:23:05;;;;;;;0.40;0.40;;;14.20;99.90;;;;;;5093992;28;20181;-78
2022/11/12 11:25:34;;;;;;;0.50;0.50;;;14.50;99.90;;;;;;5097756;28;20200;-78
2022/11/12 11:28:15;;;;;;;0.50;0.50;;;14.70;1.00;;;;;;5088226;28;20253;-79
2022/11/12 11:30:52;;;;;;;0.50;0.50;;;14.80;1.00;;;;;;5084723;28;20202;-78
2022/11/12 11:33:31;;;;;;;0.40;0.40;;;14.90;1.00;;;;;;5086738;28;20391;-78
2022/11/12 11:35:57;;;;;;;0.60;0.60;;;;;;;;;;5103093;28;20241;-78
2022/11/12 11:38:35;;;;;;;0.40;0.40;;;;;;;;;;5092662;28;20213;-78
2022/11/12 11:41:10;;;;;;;0.50;0.50;;;;;;;;;;5099943;28;20620;-78
2022/11/12 11:43:47;;;;;;;0.40;0.40;;;;;;;;;;5084611;28;20223;-78
2022/11/12 11:46:24;;;;;;;0.40;0.40;;;;;;;;;;5103823;28;20174;-77
2022/11/12 11:49:00;;;;;;;0.40;0.40;;;;;;;;;;5098970;28;20193;-79
2022/11/12 11:51:32;;;;;;;0.40;0.40;;;;;;;;;;5108612;28;20246;-78
2022/11/12 11:53:59;;;;;;;0.30;0.30;;;;;;;;;;5106059;28;20186;-78
2022/11/12 11:56:30;;;;;;;0.50;0.50;;;15.20;1.00;;;;;;5095282;28;20269;-78
2022/11/12 11:59:04;;;;;;;0.40;0.40;;;14.80;1.00;;;;;;5086194;28;20173;-77
2022/11/12 12:01:57;;;;;;;0.40;0.40;;;14.50;1.00;;;;;;5085193;28;20196;-76
2022/11/12 12:04:49;;;;;;;0.40;0.40;;;14.50;1.00;;;;;;5092679;28;20870;-76
2022/11/12 12:07:37;;;;;;;0.40;0.40;;;;;;;;;;5088331;28;20202;-76
2022/11/12 12:10:18;;;;;;;0.40;0.40;;;;;;;;;;5076196;28;20201;-76
2022/11/12 12:12:44;;;;;;;0.50;0.50;;;;;;;;;;5074468;28;20214;-77
2022/11/12 12:15:29;;;;;;;0.40;0.40;;;;;;;;;;5076831;28;20197;-76
2022/11/12 12:18:02;;;;;;;0.50;0.50;;;;;;;;;;5072589;28;20285;-77
2022/11/12 12:20:42;;;;;;;0.50;0.50;;;;;;;;;;5080185;28;20182;-76
2022/11/12 12:23:15;;;;;;;0.40;0.40;;;;;;;;;;5078129;28;20183;-77
2022/11/12 12:25:42;;;;;;;0.40;0.40;;;;;;;;;;5079186;28;20195;-78
2022/11/12 12:28:15;;;;;;;0.40;0.40;;;;;;;;;;5077493;28;20530;-78
2022/11/12 12:30:43;;;;;;;0.40;0.40;;;;;;;;;;5078755;28;20194;-78
2022/11/12 12:33:26;;;;;;;0.40;0.40;;;14.70;1.00;;;;;;5081724;28;20241;-78
2022/11/12 12:36:02;;;;;;;0.40;0.40;;;16.60;1.00;;;;;;5086118;28;20183;-77
2022/11/12 12:38:44;;;;;;;0.40;0.40;;;16.60;1.00;;;;;;5083729;28;20219;-76
2022/11/12 12:41:13;;;;;;;0.50;0.50;;;16.70;1.00;;;;;;5073904;28;20202;-77
2022/11/12 12:43:51;;;;;;;0.50;0.50;;;16.70;1.00;;;;;;5087184;28;20181;-77
2022/11/12 12:46:21;;;;;;;0.40;0.40;;;16.70;1.00;;;;;;5085447;28;20173;-77
2022/11/12 12:48:50;;;;;;;0.40;0.40;;;16.50;1.00;;;;;;5078510;28;20339;-77
2022/11/12 12:51:16;;;;;;;0.40;0.40;;;16.50;1.00;;;;;;5087765;28;20219;-77
2022/11/12 12:53:42;;;;;;;0.40;0.40;;;16.40;1.00;;;;;;5082495;28;20189;-77
2022/11/12 12:56:14;;;;;;;0.40;0.40;;;16.30;1.00;;;;;;5085652;28;20182;-77
2022/11/12 12:58:39;;;;;;;0.40;0.40;;;16.30;1.00;;;;;;5089544;28;20694;-77
2022/11/12 13:01:21;;;;;;;0.50;0.50;;;16.30;1.00;;;;;;5078110;28;20194;-76
2022/11/12 13:04:07;;;;;;;0.30;0.30;;;16.40;1.00;;;;;;5084821;28;20189;-76
2022/11/12 13:06:52;;;;;;;0.50;0.50;;;16.50;1.00;;;;;;5084845;28;20183;-76
2022/11/12 13:09:18;;;;;;;0.50;0.50;;;16.40;1.00;;;;;;5087382;28;20177;-76
2022/11/12 13:14:34;;;;;;;0.50;0.50;;;16.10;1.00;;;;;;5080332;28;20850;-76
2022/11/12 13:17:05;;;;;;;0.40;0.40;;;16.00;1.00;;;;;;5093225;28;20201;-76
2022/11/12 13:19:45;;;;;;;0.60;0.60;;;15.90;1.00;;;;;;5088493;28;20266;-75
2022/11/12 13:22:39;;;;;;;0.50;0.50;;;15.90;1.00;;;;;;5090746;28;20240;-76
2022/11/12 13:25:25;;;;;;;0.50;0.50;;;15.70;1.00;;;;;;5071672;28;20273;-77
2022/11/12 13:27:50;;;;;;;0.50;0.50;;;15.40;1.00;;;;;;5070894;28;20189;-77
2022/11/12 13:30:21;;;;;;;0.53;0.53;;;15.20;1.00;;;;;;5078818;28;20696;-77
2022/11/12 13:32:47;;;;;;;0.50;0.50;;;15.10;1.00;;;;;;5089853;28;20300;-77
2022/11/12 13:35:23;;;;;;;0.40;0.40;;;14.90;1.00;;;;;;5086581;28;20273;-77
2022/11/12 13:38:10;;;;;;;0.40;0.40;;;14.80;1.00;;;;;;5087841;28;20616;-76
2022/11/12 13:40:49;;;;;;;0.50;0.50;;;14.60;1.00;;;;;;5079745;28;20201;-77
2022/11/12 13:43:14;;;;;;;0.53;0.53;;;14.40;1.00;;;;;;5080584;28;20189;-77
2022/11/12 13:45:54;;;;;;;0.47;0.47;;;14.40;1.00;;;;;;5081624;28;20178;-78
2022/11/12 13:48:29;;;;;;;0.50;0.50;;;14.50;1.00;;;;;;5088663;28;20178;-78
2022/11/12 13:50:58;;;;;;;0.50;0.50;;;14.50;5.80;;;;;;5088032;28;20201;-78
2022/11/12 13:53:27;;;;;;;0.47;0.47;;;14.60;1.00;;;;;;5078942;28;20198;-78
2022/11/12 13:55:53;;;;;;;0.50;0.50;;;14.60;44.60;;;;;;5087003;28;20186;-77
2022/11/12 13:58:31;;;;;;;0.40;0.40;;;14.80;54.30;;;;;;5088745;28;20718;-76
2022/11/12 14:01:02;;;;;;;0.43;0.43;;;14.90;27.70;;;;;;5086319;28;20205;-77
2022/11/12 14:03:32;;;;;;;0.50;0.50;;;14.80;9.20;;;;;;5088403;28;20185;-77
2022/11/12 14:06:05;;;;;;;0.50;0.50;;;14.80;1.00;;;;;;5086936;28;20181;-77
2022/11/12 14:08:48;;;;;;;0.50;0.50;;;14.70;1.00;;;;;;5097837;28;20238;-77
2022/11/12 14:11:34;;;;;;;0.40;0.40;;;14.60;1.00;;;;;;5101806;28;20209;-77
2022/11/12 14:14:37;;;;;;;0.40;0.40;;;14.50;8.00;;;;;;5080646;28;20607;-78
2022/11/12 14:17:34;;;;;;;0.40;0.40;;;14.30;73.50;;;;;;5087032;28;20188;-78
2022/11/12 14:20:18;;;;;;;0.40;0.40;;;14.00;99.90;;;;;;5084545;28;20182;-77
2022/11/12 14:22:44;;;;;;;0.53;0.53;;;13.90;99.90;;;;;;5083399;28;20192;-78
2022/11/12 14:25:30;;;;;;;0.40;0.40;;;13.80;1.00;;;;;;5079815;28;20674;-78
2022/11/12 14:27:56;;;;;;;0.40;0.40;;;13.70;1.00;;;;;;5090050;28;20190;-78
2022/11/12 14:30:30;;;;;;;0.50;0.50;;;13.60;1.00;;;;;;5082365;28;20674;-77
2022/11/12 14:33:08;;;;;;;0.50;0.50;;;13.50;1.00;;;;;;5090870;28;20701;-78
2022/11/12 14:35:35;;;;;;;0.50;0.50;;;13.40;1.00;;;;;;5079976;28;20239;-77
2022/11/12 14:38:18;;;;;;;0.50;0.50;;;13.20;1.00;;;;;;5080424;28;20193;-77
2022/11/12 14:40:51;;;;;;;0.50;0.50;;;13.10;99.90;;;;;;5082313;28;20213;-77
2022/11/12 14:43:24;;;;;;;0.50;0.50;;;12.90;99.90;;;;;;5091728;28;20227;-78
2022/11/12 14:45:52;;;;;;;0.47;0.47;;;12.90;1.00;;;;;;5090188;28;20301;-77
2022/11/12 14:48:18;;;;;;;0.40;0.40;;;12.70;1.00;;;;;;5084275;28;20186;-78
2022/11/12 14:50:48;;;;;;;0.50;0.50;;;12.60;1.00;;;;;;5085100;28;20209;-79
2022/11/12 14:53:38;;;;;;;0.47;0.47;;;12.50;1.00;;;;;;5088687;28;20708;-78
2022/11/12 14:56:07;;;;;;;0.50;0.50;;;12.50;99.90;;;;;;5085765;28;20201;-78
2022/11/12 14:58:34;;;;;;;0.60;0.60;;;12.40;1.00;;;;;;5092204;28;20273;-78
2022/11/12 15:01:17;;;;;;;0.50;0.50;;;12.30;1.00;;;;;;5089457;28;20233;-78